createdAt,value
2018-11-25T00:02:17.702Z,406.27
2018-11-25T00:04:48.928Z,40.53
2018-11-25T00:07:25.406Z,129.20
2018-11-25T00:10:02.128Z,69.20
2018-11-25T00:12:32.677Z,97.03
2018-11-25T00:15:02.732Z,53.90
2018-11-25T00:17:32.655Z,117.27
2018-11-25T00:20:05.854Z,90.63
2018-11-25T00:22:36.704Z,223.83
2018-11-25T00:25:10.261Z,130.20
2018-11-25T00:27:43.741Z,76.80
2018-11-25T00:30:25.209Z,57.83
2018-11-25T00:34:04.040Z,59.23
2018-11-25T00:36:35.334Z,89.23
2018-11-25T00:39:09.806Z,99.23
2018-11-25T00:41:45.132Z,93.63
2018-11-25T00:44:15.813Z,90.17
2018-11-25T00:46:45.907Z,65.13
2018-11-25T00:49:19.005Z,76.13
2018-11-25T00:51:49.292Z,116.37
2018-11-25T00:54:18.820Z,74.17
2018-11-25T00:57:00.462Z,79.77
2018-11-25T00:59:45.926Z,134.30
2018-11-25T01:02:26.090Z,141.73
2018-11-25T01:05:00.793Z,116.47
2018-11-25T01:07:32.357Z,101.80
2018-11-25T01:10:08.458Z,295.37
2018-11-25T01:12:39.366Z,197.37
2018-11-25T01:15:17.146Z,139.87
2018-11-25T01:18:07.775Z,133.40
2018-11-25T01:20:54.878Z,118.00
2018-11-25T01:23:41.165Z,169.43
2018-11-25T01:26:28.978Z,137.27
2018-11-25T01:29:25.096Z,81.17
2018-11-25T01:31:56.380Z,134.03
2018-11-25T01:34:26.213Z,277.67
2018-11-25T01:36:56.296Z,71.63
2018-11-25T01:39:26.045Z,212.50
2018-11-25T01:41:56.083Z,180.23
2018-11-25T01:44:35.941Z,154.67
2018-11-25T01:47:20.855Z,124.97
2018-11-25T01:50:11.231Z,109.37
2018-11-25T01:52:57.719Z,93.43
2018-11-25T01:55:28.244Z,85.87
2018-11-25T01:57:57.973Z,253.37
2018-11-25T02:00:27.734Z,92.43
2018-11-25T02:03:04.897Z,94.20
2018-11-25T02:05:49.570Z,97.70
2018-11-25T02:08:20.073Z,105.43
2018-11-25T02:10:49.690Z,153.07
2018-11-25T02:13:19.306Z,118.17
2018-11-25T02:15:49.668Z,97.40
2018-11-25T02:18:22.245Z,110.68
2018-11-25T02:20:53.280Z,112.67
2018-11-25T02:23:22.874Z,250.53
2018-11-25T02:25:52.440Z,68.07
2018-11-25T02:28:22.508Z,79.63
2018-11-25T02:30:54.304Z,168.40
2018-11-25T02:33:24.263Z,148.70
2018-11-25T02:35:54.533Z,76.37
2018-11-25T02:38:35.411Z,61.90
2018-11-25T02:41:14.528Z,75.73
2018-11-25T02:43:55.336Z,67.73
2018-11-25T02:46:25.934Z,120.83
2018-11-25T02:48:55.750Z,86.00
2018-11-25T02:51:26.176Z,62.57
2018-11-25T02:53:59.237Z,61.20
2018-11-25T02:56:44.603Z,90.90
2018-11-25T02:59:15.945Z,110.53
2018-11-25T03:01:45.539Z,59.30
2018-11-25T03:04:33.250Z,67.47
2018-11-25T03:07:03.560Z,93.40
2018-11-25T03:09:33.080Z,71.40
2018-11-25T03:12:03.665Z,62.07
2018-11-25T03:14:33.163Z,64.17
2018-11-25T03:17:02.629Z,54.17
2018-11-25T03:19:32.559Z,63.77
2018-11-25T03:22:02.191Z,83.10
2018-11-25T03:24:32.312Z,74.03
2018-11-25T03:27:02.800Z,77.57
2018-11-25T03:29:33.173Z,70.10
2018-11-25T03:32:02.703Z,57.70
2018-11-25T03:34:33.013Z,63.20
2018-11-25T03:37:03.536Z,72.80
2018-11-25T03:39:35.565Z,92.63
2018-11-25T03:42:07.857Z,61.47
2018-11-25T03:44:39.777Z,64.10
2018-11-25T03:47:09.924Z,99.83
2018-11-25T03:49:39.292Z,65.07
2018-11-25T03:52:14.972Z,66.20
2018-11-25T03:54:45.361Z,58.90
2018-11-25T03:57:15.179Z,61.03
2018-11-25T03:59:48.289Z,70.40
2018-11-25T04:02:21.266Z,63.70
2018-11-25T04:04:51.496Z,57.77
2018-11-25T04:07:21.422Z,57.53
2018-11-25T04:09:51.430Z,66.37
2018-11-25T04:12:21.417Z,59.83
2018-11-25T04:14:50.936Z,64.23
2018-11-25T04:17:20.514Z,59.90
2018-11-25T04:19:50.979Z,57.63
2018-11-25T04:22:20.816Z,61.87
2018-11-25T04:24:51.694Z,55.50
2018-11-25T04:27:21.968Z,54.77
2018-11-25T04:29:51.397Z,62.17
2018-11-25T04:32:22.327Z,50.50
2018-11-25T04:34:53.121Z,61.60
2018-11-25T04:37:23.191Z,65.53
2018-11-25T04:39:52.533Z,47.07
2018-11-25T04:42:22.125Z,55.80
2018-11-25T04:44:51.718Z,61.23
2018-11-25T04:47:22.150Z,55.77
2018-11-25T04:49:52.527Z,51.47
2018-11-25T04:52:22.335Z,51.77
2018-11-25T04:54:51.653Z,45.93
2018-11-25T04:57:21.510Z,59.63
2018-11-25T04:59:50.918Z,54.97
2018-11-25T05:02:20.752Z,42.10
2018-11-25T05:04:50.115Z,58.40
2018-11-25T05:07:19.497Z,41.93
2018-11-25T05:09:50.429Z,59.07
2018-11-25T05:12:20.172Z,55.33
2018-11-25T05:14:49.802Z,57.37
2018-11-25T05:17:19.384Z,73.70
2018-11-25T05:19:50.149Z,57.73
2018-11-25T05:22:21.030Z,71.50
2018-11-25T05:24:50.673Z,68.47
2018-11-25T05:27:20.390Z,70.97
2018-11-25T05:29:51.089Z,67.80
2018-11-25T05:32:21.645Z,78.70
2018-11-25T05:34:51.721Z,72.53
2018-11-25T05:37:21.028Z,77.27
2018-11-25T05:39:50.904Z,75.33
2018-11-25T05:42:20.342Z,73.97
2018-11-25T05:44:51.657Z,83.10
2018-11-25T05:47:20.945Z,77.90
2018-11-25T05:49:50.304Z,79.80
2018-11-25T05:52:19.863Z,70.80
2018-11-25T05:54:49.767Z,73.07
2018-11-25T05:57:21.818Z,73.00
2018-11-25T05:59:51.145Z,85.70
2018-11-25T06:02:20.689Z,79.33
2018-11-25T06:04:50.691Z,82.37
2018-11-25T06:07:20.794Z,89.13
2018-11-25T06:09:51.078Z,77.30
2018-11-25T06:12:20.372Z,79.67
2018-11-25T06:14:49.699Z,87.53
2018-11-25T06:17:20.344Z,76.17
2018-11-25T06:19:49.693Z,78.10
2018-11-25T06:22:19.048Z,85.47
2018-11-25T06:24:48.632Z,80.90
2018-11-25T06:27:18.695Z,97.60
2018-11-25T06:29:51.040Z,105.20
2018-11-25T06:32:20.726Z,92.57
2018-11-25T06:34:51.029Z,97.23
2018-11-25T06:37:23.879Z,115.37
2018-11-25T06:39:53.334Z,114.17
2018-11-25T06:42:23.794Z,112.63
2018-11-25T06:44:53.122Z,93.73
2018-11-25T06:47:22.462Z,122.73
2018-11-25T06:49:52.040Z,108.20
2018-11-25T06:52:21.389Z,114.17
2018-11-25T06:54:51.354Z,121.87
2018-11-25T06:57:21.516Z,127.67
2018-11-25T06:59:51.102Z,118.87
2018-11-25T07:02:20.728Z,100.70
2018-11-25T07:04:50.101Z,100.43
2018-11-25T07:07:21.413Z,101.37
2018-11-25T07:09:51.616Z,103.43
2018-11-25T07:12:22.915Z,99.83
2018-11-25T07:14:52.369Z,91.87
2018-11-25T07:17:21.945Z,98.27
2018-11-25T07:19:52.008Z,95.47
2018-11-25T07:22:21.292Z,104.10
2018-11-25T07:24:50.548Z,105.83
2018-11-25T07:27:22.141Z,103.00
2018-11-25T07:29:51.495Z,117.13
2018-11-25T07:32:20.998Z,88.73
2018-11-25T07:34:50.627Z,82.53
2018-11-25T07:37:21.210Z,109.03
2018-11-25T07:39:50.521Z,86.97
2018-11-25T07:42:19.850Z,94.40
2018-11-25T07:44:49.145Z,100.83
2018-11-25T07:47:18.557Z,89.63
2018-11-25T07:49:47.857Z,83.13
2018-11-25T07:52:17.199Z,104.63
2018-11-25T07:54:47.143Z,98.10
2018-11-25T07:57:16.487Z,94.87
2018-11-25T07:59:45.906Z,94.60
2018-11-25T08:02:15.912Z,115.10
2018-11-25T08:04:45.184Z,117.40
2018-11-25T08:07:15.072Z,115.97
2018-11-25T08:09:45.406Z,116.60
2018-11-25T08:12:15.206Z,117.20
2018-11-25T08:14:44.535Z,113.27
2018-11-25T08:17:18.435Z,124.77
2018-11-25T08:19:49.239Z,105.30
2018-11-25T08:22:18.757Z,120.77
2018-11-25T08:24:51.740Z,107.43
2018-11-25T08:27:21.731Z,130.97
2018-11-25T08:29:51.111Z,166.27
2018-11-25T08:32:21.212Z,117.87
2018-11-25T08:34:50.547Z,116.27
2018-11-25T08:37:19.847Z,121.13
2018-11-25T08:39:49.627Z,107.87
2018-11-25T08:42:19.304Z,110.57
2018-11-25T08:44:49.535Z,117.53
2018-11-25T08:47:19.953Z,114.20
2018-11-25T08:49:49.527Z,130.47
2018-11-25T08:52:18.902Z,108.87
2018-11-25T08:54:50.498Z,140.23
2018-11-25T08:57:20.871Z,118.63
2018-11-25T08:59:50.851Z,134.23
2018-11-25T09:02:21.943Z,121.43
2018-11-25T09:04:52.772Z,128.83
2018-11-25T09:07:22.369Z,126.33
2018-11-25T09:09:51.731Z,123.57
2018-11-25T09:12:21.162Z,123.23
2018-11-25T09:14:50.492Z,110.30
2018-11-25T09:17:19.887Z,106.27
2018-11-25T09:19:49.976Z,107.27
2018-11-25T09:22:20.179Z,102.47
2018-11-25T09:24:50.348Z,97.63
2018-11-25T09:27:20.767Z,112.13
2018-11-25T09:29:50.374Z,108.40
2018-11-25T09:32:23.133Z,97.10
2018-11-25T09:34:49.444Z,125.43
2018-11-25T09:37:19.756Z,104.03
2018-11-25T09:39:49.234Z,126.70
2018-11-25T09:42:18.837Z,119.93
2018-11-25T09:44:48.579Z,99.67
2018-11-25T09:49:55.372Z,102.23
2018-11-25T09:52:25.857Z,113.40
2018-11-25T09:55:03.094Z,100.83
2018-11-25T09:57:32.593Z,103.27
2018-11-25T10:00:02.360Z,113.37
2018-11-25T10:02:32.684Z,102.40
2018-11-25T10:05:03.009Z,102.03
2018-11-25T10:07:33.694Z,109.30
2018-11-25T10:10:04.206Z,115.70
2018-11-25T10:12:36.708Z,97.43
2018-11-25T10:15:08.597Z,121.87
2018-11-25T10:17:39.037Z,108.63
2018-11-25T10:20:13.688Z,112.77
2018-11-25T10:22:44.674Z,93.90
2018-11-25T10:25:14.893Z,106.83
2018-11-25T10:27:44.779Z,114.20
2018-11-25T10:30:19.943Z,103.47
2018-11-25T10:32:51.867Z,111.83
2018-11-25T10:35:22.706Z,124.07
2018-11-25T10:37:53.255Z,133.40
2018-11-25T10:40:24.082Z,129.90
2018-11-25T10:42:53.854Z,133.80
2018-11-25T10:45:28.665Z,130.43
2018-11-25T10:47:58.943Z,139.20
2018-11-25T10:50:28.605Z,161.23
2018-11-25T10:52:58.778Z,151.07
2018-11-25T10:55:28.297Z,148.87
2018-11-25T10:57:58.246Z,136.90
2018-11-25T11:00:38.788Z,142.37
2018-11-25T11:03:15.550Z,127.03
2018-11-25T11:05:50.805Z,130.17
2018-11-25T11:08:22.065Z,139.37
2018-11-25T11:10:51.686Z,166.70
2018-11-25T11:13:22.479Z,148.97
2018-11-25T11:15:52.502Z,141.70
2018-11-25T11:18:23.183Z,175.30
2018-11-25T11:20:53.779Z,151.43
2018-11-25T11:23:24.113Z,145.77
2018-11-25T11:25:54.023Z,150.37
2018-11-25T11:28:26.306Z,168.10
2018-11-25T11:30:58.272Z,169.07
2018-11-25T11:33:28.845Z,181.83
2018-11-25T11:36:27.536Z,163.13
2018-11-25T11:39:01.277Z,143.13
2018-11-25T11:41:33.614Z,152.33
2018-11-25T11:44:07.775Z,135.10
2018-11-25T11:46:37.693Z,126.93
2018-11-25T11:49:07.923Z,152.47
2018-11-25T11:51:39.538Z,150.10
2018-11-25T11:54:09.460Z,187.20
2018-11-25T11:56:40.332Z,147.93
2018-11-25T11:59:09.284Z,148.30
2018-11-25T12:01:39.169Z,145.37
2018-11-25T12:04:11.342Z,148.50
2018-11-25T12:06:41.659Z,133.97
2018-11-25T12:09:12.518Z,131.33
2018-11-25T12:11:42.305Z,144.07
2018-11-25T12:14:12.881Z,147.33
2018-11-25T12:16:43.837Z,137.77
2018-11-25T12:19:15.363Z,168.20
2018-11-25T12:21:48.470Z,153.40
2018-11-25T12:24:19.751Z,144.73
2018-11-25T12:26:49.422Z,144.10
2018-11-25T12:29:19.580Z,151.43
2018-11-25T12:31:51.261Z,162.07
2018-11-25T12:34:22.734Z,163.70
2018-11-25T12:36:53.450Z,156.80
2018-11-25T12:39:28.291Z,162.83
2018-11-25T12:41:55.989Z,146.90
2018-11-25T12:44:29.161Z,164.87
2018-11-25T12:46:59.194Z,169.10
2018-11-25T12:49:30.407Z,173.83
2018-11-25T12:52:02.392Z,144.03
2018-11-25T12:54:32.221Z,163.17
2018-11-25T12:57:02.857Z,152.13
2018-11-25T12:59:33.230Z,184.03
2018-11-25T13:02:03.083Z,175.80
2018-11-25T13:04:35.425Z,145.07
2018-11-25T13:07:06.955Z,148.90
2018-11-25T13:09:38.732Z,164.43
2018-11-25T13:12:13.677Z,150.77
2018-11-25T13:14:44.988Z,168.47
2018-11-25T13:17:30.665Z,134.23
2018-11-25T13:20:17.747Z,159.13
2018-11-25T13:22:49.605Z,181.97
2018-11-25T13:25:25.783Z,150.03
2018-11-25T13:27:56.920Z,150.60
2018-11-25T13:30:31.611Z,165.90
2018-11-25T13:33:03.799Z,169.27
2018-11-25T13:35:36.932Z,154.00
2018-11-25T13:38:08.050Z,160.37
2018-11-25T13:40:38.489Z,144.10
2018-11-25T13:43:11.559Z,168.93
2018-11-25T13:45:41.446Z,163.07
2018-11-25T13:48:12.341Z,170.00
2018-11-25T13:50:42.640Z,230.13
2018-11-25T13:53:13.890Z,170.17
2018-11-25T13:55:43.831Z,142.90
2018-11-25T13:58:15.290Z,159.20
2018-11-25T14:00:52.977Z,169.60
2018-11-25T14:03:35.533Z,147.07
2018-11-25T14:06:08.079Z,162.43
2018-11-25T14:08:40.037Z,138.10
2018-11-25T14:11:15.115Z,144.00
2018-11-25T14:13:45.711Z,157.57
2018-11-25T14:16:17.969Z,158.90
2018-11-25T14:18:49.366Z,208.97
2018-11-25T14:21:20.283Z,179.70
2018-11-25T14:23:52.215Z,149.23
2018-11-25T14:26:27.614Z,127.17
2018-11-25T14:28:57.644Z,160.50
2018-11-25T14:31:30.157Z,144.97
2018-11-25T14:34:01.127Z,141.47
2018-11-25T14:36:32.035Z,163.30
2018-11-25T14:39:03.468Z,126.63
2018-11-25T14:41:36.184Z,145.90
2018-11-25T14:44:09.263Z,156.50
2018-11-25T14:46:38.520Z,165.50
2018-11-25T14:49:09.207Z,147.97
2018-11-25T14:51:39.901Z,126.50
2018-11-25T14:54:10.320Z,142.13
2018-11-25T14:56:42.495Z,142.57
2018-11-25T14:59:13.478Z,129.30
2018-11-25T15:01:44.688Z,134.50
2018-11-25T15:04:14.557Z,124.03
2018-11-25T15:06:44.416Z,145.70
2018-11-25T15:09:15.916Z,129.00
2018-11-25T15:11:45.745Z,123.03
2018-11-25T15:14:15.806Z,135.00
2018-11-25T15:16:45.842Z,107.97
2018-11-25T15:19:17.657Z,203.30
2018-11-25T15:21:55.453Z,114.90
2018-11-25T15:24:26.936Z,149.17
2018-11-25T15:26:56.788Z,117.83
2018-11-25T15:29:26.820Z,131.40
2018-11-25T15:31:59.101Z,120.93
2018-11-25T15:34:30.108Z,107.70
2018-11-25T15:37:03.058Z,107.97
2018-11-25T15:39:36.053Z,107.80
2018-11-25T15:42:09.911Z,97.47
2018-11-25T15:44:45.762Z,99.47
2018-11-25T15:47:17.482Z,87.27
2018-11-25T15:49:47.839Z,82.57
2018-11-25T15:52:18.222Z,96.10
2018-11-25T15:54:50.328Z,99.23
2018-11-25T15:57:22.917Z,114.30
2018-11-25T15:59:55.044Z,102.77
2018-11-25T16:02:28.123Z,97.37
2018-11-25T16:04:58.214Z,82.43
2018-11-25T16:07:31.754Z,94.13
2018-11-25T16:10:06.431Z,106.03
2018-11-25T16:12:37.307Z,91.47
2018-11-25T16:15:21.086Z,96.00
2018-11-25T16:18:00.885Z,101.33
2018-11-25T16:20:34.922Z,84.37
2018-11-25T16:23:09.603Z,94.50
2018-11-25T16:25:47.093Z,83.10
2018-11-25T16:28:39.567Z,89.93
2018-11-25T16:31:11.594Z,84.10
2018-11-25T16:33:46.186Z,80.50
2018-11-25T16:36:18.431Z,89.97
2018-11-25T16:38:49.907Z,94.60
2018-11-25T16:41:27.252Z,90.17
2018-11-25T16:44:17.864Z,86.07
2018-11-25T16:46:53.280Z,77.67
2018-11-25T16:49:28.697Z,71.20
2018-11-25T16:51:59.346Z,102.53
2018-11-25T16:54:37.442Z,136.13
2018-11-25T16:57:07.852Z,110.97
2018-11-25T16:59:42.137Z,89.17
2018-11-25T17:02:14.293Z,111.57
2018-11-25T17:04:48.249Z,74.83
2018-11-25T17:07:18.900Z,84.10
2018-11-25T17:09:50.094Z,61.33
2018-11-25T17:12:22.405Z,63.77
2018-11-25T17:14:53.144Z,155.77
2018-11-25T17:17:23.537Z,86.83
2018-11-25T17:19:53.838Z,68.90
2018-11-25T17:22:26.466Z,64.70
2018-11-25T17:24:59.417Z,70.93
2018-11-25T17:27:29.701Z,61.10
2018-11-25T17:30:01.314Z,54.90
2018-11-25T17:32:31.879Z,67.60
2018-11-25T17:35:01.762Z,130.43
2018-11-25T17:37:32.451Z,59.13
2018-11-25T17:40:03.690Z,61.57
2018-11-25T17:42:37.007Z,71.70
2018-11-25T17:45:11.392Z,50.30
2018-11-25T17:47:43.666Z,58.00
2018-11-25T17:50:24.223Z,58.10
2018-11-25T17:52:57.491Z,68.60
2018-11-25T17:55:29.622Z,51.27
2018-11-25T17:58:05.196Z,65.77
2018-11-25T18:00:46.518Z,53.50
2018-11-25T18:03:23.779Z,62.17
2018-11-25T18:05:55.729Z,54.80
2018-11-25T18:08:30.622Z,53.23
2018-11-25T18:11:03.022Z,58.20
2018-11-25T18:13:42.868Z,56.03
2018-11-25T18:16:15.826Z,60.27
2018-11-25T18:18:48.688Z,49.00
2018-11-25T18:21:22.138Z,52.10
2018-11-25T18:23:54.007Z,60.03
2018-11-25T18:26:25.627Z,56.37
2018-11-25T18:29:24.104Z,63.57
2018-11-25T18:31:55.048Z,58.50
2018-11-25T18:34:27.788Z,52.40
2018-11-25T18:36:57.832Z,52.30
2018-11-25T18:39:31.766Z,63.47
2018-11-25T18:42:05.836Z,62.37
2018-11-25T18:44:37.391Z,76.50
2018-11-25T18:47:07.791Z,49.77
2018-11-25T18:49:39.531Z,59.03
2018-11-25T18:52:10.214Z,42.33
2018-11-25T18:54:46.207Z,70.37
2018-11-25T18:57:16.673Z,62.80
2018-11-25T18:59:49.081Z,45.53
2018-11-25T19:02:29.707Z,80.90
2018-11-25T19:05:03.888Z,53.30
2018-11-25T19:07:36.380Z,64.57
2018-11-25T19:10:16.497Z,47.33
2018-11-25T19:12:46.865Z,38.23
2018-11-25T19:15:18.059Z,49.63
2018-11-25T19:17:48.809Z,55.40
2018-11-25T19:20:45.423Z,57.37
2018-11-25T19:23:26.457Z,53.40
2018-11-25T19:25:56.681Z,44.03
2018-11-25T19:28:27.614Z,42.83
2018-11-25T19:31:00.457Z,41.60
2018-11-25T19:33:32.495Z,46.13
2018-11-25T19:36:05.895Z,40.77
2018-11-25T19:38:36.732Z,46.73
2018-11-25T19:41:11.540Z,51.63
2018-11-25T19:43:45.842Z,55.27
2018-11-25T19:46:16.985Z,55.33
2018-11-25T19:48:47.019Z,53.93
2018-11-25T19:51:21.741Z,52.97
2018-11-25T19:53:51.997Z,49.57
2018-11-25T19:56:26.877Z,43.60
2018-11-25T19:59:02.852Z,45.73
2018-11-25T20:01:32.743Z,52.47
2018-11-25T20:04:05.715Z,46.43
2018-11-25T20:06:37.291Z,49.67
2018-11-25T20:09:12.088Z,47.47
2018-11-25T20:11:52.859Z,43.97
2018-11-25T20:14:44.329Z,49.13
2018-11-25T20:17:21.854Z,47.90
2018-11-25T20:19:58.317Z,39.60
2018-11-25T20:22:35.091Z,41.40
2018-11-25T20:25:15.067Z,46.83
2018-11-25T20:28:04.525Z,40.13
2018-11-25T20:30:41.337Z,54.33
2018-11-25T20:33:20.117Z,49.43
2018-11-25T20:35:53.124Z,51.17
2018-11-25T20:38:33.977Z,47.83
2018-11-25T20:41:09.099Z,38.63
2018-11-25T20:43:40.628Z,49.50
2018-11-25T20:46:17.009Z,52.80
2018-11-25T20:48:48.858Z,46.93
2018-11-25T20:51:33.582Z,50.33
2018-11-25T20:54:24.426Z,51.77
2018-11-25T20:56:59.615Z,49.57
2018-11-25T20:59:38.297Z,49.13
2018-11-25T21:02:19.951Z,46.30
2018-11-25T21:04:55.890Z,62.00
2018-11-25T21:10:26.137Z,39.33
2018-11-25T21:13:00.351Z,41.63
2018-11-25T21:15:33.070Z,40.10
2018-11-25T21:18:11.913Z,43.57
2018-11-25T21:20:51.237Z,39.90
2018-11-25T21:23:24.238Z,98.80
2018-11-25T21:26:03.213Z,90.57
2018-11-25T21:28:52.732Z,58.30
2018-11-25T21:34:23.045Z,49.70
2018-11-25T21:37:03.032Z,78.10
2018-11-25T21:39:35.469Z,58.57
2018-11-25T21:42:08.872Z,40.57
2018-11-25T21:44:43.155Z,35.50
2018-11-25T21:47:15.058Z,37.83
2018-11-25T21:49:46.104Z,34.73
2018-11-25T21:55:53.964Z,30.83
2018-11-25T21:58:28.619Z,45.83
2018-11-25T22:01:00.605Z,35.73
2018-11-25T22:03:34.651Z,45.57
2018-11-25T22:06:17.228Z,43.73
2018-11-25T22:08:49.158Z,41.60
2018-11-25T22:11:21.221Z,40.97
2018-11-25T22:13:51.339Z,40.63
2018-11-25T22:16:25.388Z,36.80
2018-11-25T22:25:45.755Z,45.33
2018-11-25T22:28:19.242Z,37.97
2018-11-25T22:30:50.491Z,35.00
2018-11-25T22:33:24.779Z,42.37
2018-11-25T22:36:02.988Z,38.90
2018-11-25T22:38:39.700Z,39.50
2018-11-25T22:41:30.123Z,38.80
2018-11-25T22:44:06.971Z,42.60
2018-11-25T22:46:42.903Z,36.33
2018-11-25T22:49:15.168Z,40.77
2018-11-25T22:51:45.728Z,36.83
2018-11-25T22:54:16.396Z,38.90
2018-11-25T22:56:49.034Z,37.67
2018-11-25T22:59:19.951Z,40.63
2018-11-25T23:02:11.661Z,70.00
2018-11-25T23:04:52.633Z,147.33
2018-11-25T23:07:23.642Z,51.47
2018-11-25T23:09:57.098Z,45.40
2018-11-25T23:12:27.633Z,43.83
2018-11-25T23:14:59.201Z,42.67
2018-11-25T23:17:31.427Z,42.47
2018-11-25T23:20:01.760Z,36.50
2018-11-25T23:22:32.885Z,61.30
2018-11-25T23:25:05.732Z,46.70
2018-11-25T23:27:35.664Z,49.50
2018-11-25T23:30:06.506Z,49.07
2018-11-25T23:32:37.064Z,44.53
2018-11-25T23:35:09.532Z,41.03
2018-11-25T23:37:42.097Z,44.40
2018-11-25T23:40:13.341Z,44.87
2018-11-25T23:42:44.218Z,44.13
2018-11-25T23:45:16.938Z,39.27
2018-11-25T23:47:53.278Z,49.27
2018-11-25T23:50:26.177Z,45.53
2018-11-25T23:52:56.747Z,39.90
2018-11-25T23:55:31.846Z,42.37
2018-11-25T23:58:03.032Z,45.93
